sensor_id;sensor_type;location;lat;lon;timestamp;temperature;humidity
14119;DHT22;7138;49.246;9.100;2023-11-19T00:00:34;6.50;99.90
14119;DHT22;7138;49.246;9.100;2023-11-19T00:03:01;6.50;99.90
14119;DHT22;7138;49.246;9.100;2023-11-19T00:05:27;6.40;99.90
14119;DHT22;7138;49.246;9.100;2023-11-19T00:07:54;6.40;99.90
14119;DHT22;7138;49.246;9.100;2023-11-19T00:10:20;6.50;99.90
14119;DHT22;7138;49.246;9.100;2023-11-19T00:12:47;6.40;99.90
14119;DHT22;7138;49.246;9.100;2023-11-19T00:15:14;6.40;99.90
14119;DHT22;7138;49.246;9.100;2023-11-19T00:17:42;6.40;99.90
14119;DHT22;7138;49.246;9.100;2023-11-19T00:20:10;6.50;99.90
14119;DHT22;7138;49.246;9.100;2023-11-19T00:22:37;6.50;99.90
14119;DHT22;7138;49.246;9.100;2023-11-19T00:25:05;6.50;99.90
14119;DHT22;7138;49.246;9.100;2023-11-19T00:27:32;6.50;99.90
14119;DHT22;7138;49.246;9.100;2023-11-19T00:29:58;6.50;99.90
14119;DHT22;7138;49.246;9.100;2023-11-19T00:32:24;6.50;99.90
14119;DHT22;7138;49.246;9.100;2023-11-19T00:34:49;6.50;99.90
14119;DHT22;7138;49.246;9.100;2023-11-19T00:37:16;6.50;99.90
14119;DHT22;7138;49.246;9.100;2023-11-19T00:39:42;6.50;99.90
14119;DHT22;7138;49.246;9.100;2023-11-19T00:42:13;6.50;99.90
14119;DHT22;7138;49.246;9.100;2023-11-19T00:44:39;6.50;99.90
14119;DHT22;7138;49.246;9.100;2023-11-19T00:47:06;6.50;99.90
14119;DHT22;7138;49.246;9.100;2023-11-19T00:49:32;6.50;99.90
14119;DHT22;7138;49.246;9.100;2023-11-19T00:52:01;6.50;99.90
14119;DHT22;7138;49.246;9.100;2023-11-19T00:54:27;6.50;99.90
14119;DHT22;7138;49.246;9.100;2023-11-19T00:56:53;6.60;99.90
14119;DHT22;7138;49.246;9.100;2023-11-19T00:59:21;6.60;99.90
14119;DHT22;7138;49.246;9.100;2023-11-19T01:01:47;6.60;99.90
14119;DHT22;7138;49.246;9.100;2023-11-19T01:04:19;6.50;99.90
14119;DHT22;7138;49.246;9.100;2023-11-19T01:06:44;6.60;99.90
14119;DHT22;7138;49.246;9.100;2023-11-19T01:09:10;6.60;99.90
14119;DHT22;7138;49.246;9.100;2023-11-19T01:11:36;6.60;99.90
14119;DHT22;7138;49.246;9.100;2023-11-19T01:14:02;6.60;99.90
14119;DHT22;7138;49.246;9.100;2023-11-19T01:16:29;6.60;99.90
14119;DHT22;7138;49.246;9.100;2023-11-19T01:18:56;6.60;99.90
14119;DHT22;7138;49.246;9.100;2023-11-19T01:21:22;6.60;99.90
14119;DHT22;7138;49.246;9.100;2023-11-19T01:23:48;6.60;99.90
14119;DHT22;7138;49.246;9.100;2023-11-19T01:26:13;6.70;99.90
14119;DHT22;7138;49.246;9.100;2023-11-19T01:28:40;6.70;99.90
14119;DHT22;7138;49.246;9.100;2023-11-19T01:31:10;6.70;99.90
14119;DHT22;7138;49.246;9.100;2023-11-19T01:33:37;6.70;99.90
14119;DHT22;7138;49.246;9.100;2023-11-19T01:36:04;6.70;99.90
14119;DHT22;7138;49.246;9.100;2023-11-19T01:38:31;6.60;99.90
14119;DHT22;7138;49.246;9.100;2023-11-19T01:40:57;6.60;99.90
14119;DHT22;7138;49.246;9.100;2023-11-19T01:43:31;6.60;99.90
14119;DHT22;7138;49.246;9.100;2023-11-19T01:45:59;6.60;99.90
14119;DHT22;7138;49.246;9.100;2023-11-19T01:48:25;6.70;99.90
14119;DHT22;7138;49.246;9.100;2023-11-19T01:50:53;6.70;99.90
14119;DHT22;7138;49.246;9.100;2023-11-19T01:53:19;6.70;99.90
14119;DHT22;7138;49.246;9.100;2023-11-19T01:55:46;6.60;99.90
14119;DHT22;7138;49.246;9.100;2023-11-19T01:58:14;6.70;99.90
14119;DHT22;7138;49.246;9.100;2023-11-19T02:00:40;6.70;99.90
14119;DHT22;7138;49.246;9.100;2023-11-19T02:03:07;6.70;99.90
14119;DHT22;7138;49.246;9.100;2023-11-19T02:05:34;6.70;99.90
14119;DHT22;7138;49.246;9.100;2023-11-19T02:08:02;6.70;99.90
14119;DHT22;7138;49.246;9.100;2023-11-19T02:10:28;6.70;99.90
14119;DHT22;7138;49.246;9.100;2023-11-19T02:12:54;6.70;99.90
14119;DHT22;7138;49.246;9.100;2023-11-19T02:15:20;6.70;99.90
14119;DHT22;7138;49.246;9.100;2023-11-19T02:17:50;6.70;99.90
14119;DHT22;7138;49.246;9.100;2023-11-19T02:20:16;6.80;99.90
14119;DHT22;7138;49.246;9.100;2023-11-19T02:22:42;6.80;99.90
14119;DHT22;7138;49.246;9.100;2023-11-19T02:25:15;6.80;99.90
14119;DHT22;7138;49.246;9.100;2023-11-19T02:27:52;6.80;99.90
14119;DHT22;7138;49.246;9.100;2023-11-19T02:30:22;6.80;99.90
14119;DHT22;7138;49.246;9.100;2023-11-19T02:32:52;6.80;99.90
14119;DHT22;7138;49.246;9.100;2023-11-19T02:35:18;6.80;99.90
14119;DHT22;7138;49.246;9.100;2023-11-19T02:37:44;6.90;99.90
14119;DHT22;7138;49.246;9.100;2023-11-19T02:40:10;6.80;99.90
14119;DHT22;7138;49.246;9.100;2023-11-19T02:42:36;6.90;99.90
14119;DHT22;7138;49.246;9.100;2023-11-19T02:45:04;6.90;99.90
14119;DHT22;7138;49.246;9.100;2023-11-19T02:47:32;6.90;99.90
14119;DHT22;7138;49.246;9.100;2023-11-19T02:49:59;6.90;99.90
14119;DHT22;7138;49.246;9.100;2023-11-19T02:52:24;6.90;99.90
14119;DHT22;7138;49.246;9.100;2023-11-19T02:54:51;6.90;99.90
14119;DHT22;7138;49.246;9.100;2023-11-19T02:57:17;6.90;99.90
14119;DHT22;7138;49.246;9.100;2023-11-19T02:59:46;7.00;99.90
14119;DHT22;7138;49.246;9.100;2023-11-19T03:02:13;7.00;99.90
14119;DHT22;7138;49.246;9.100;2023-11-19T03:04:41;6.90;99.90
14119;DHT22;7138;49.246;9.100;2023-11-19T03:07:09;6.90;99.90
14119;DHT22;7138;49.246;9.100;2023-11-19T03:09:35;7.00;99.90
14119;DHT22;7138;49.246;9.100;2023-11-19T03:12:01;7.00;99.90
14119;DHT22;7138;49.246;9.100;2023-11-19T03:14:27;7.00;99.90
14119;DHT22;7138;49.246;9.100;2023-11-19T03:16:53;7.00;99.90
14119;DHT22;7138;49.246;9.100;2023-11-19T03:19:20;7.00;99.90
14119;DHT22;7138;49.246;9.100;2023-11-19T03:21:46;7.00;99.90
14119;DHT22;7138;49.246;9.100;2023-11-19T03:24:13;7.00;99.90
14119;DHT22;7138;49.246;9.100;2023-11-19T03:26:39;7.00;99.90
14119;DHT22;7138;49.246;9.100;2023-11-19T03:29:05;7.00;99.90
14119;DHT22;7138;49.246;9.100;2023-11-19T03:31:31;7.00;99.90
14119;DHT22;7138;49.246;9.100;2023-11-19T03:33:57;7.00;99.90
14119;DHT22;7138;49.246;9.100;2023-11-19T03:36:24;7.00;99.90
14119;DHT22;7138;49.246;9.100;2023-11-19T03:38:50;7.10;99.90
14119;DHT22;7138;49.246;9.100;2023-11-19T03:41:17;7.10;99.90
14119;DHT22;7138;49.246;9.100;2023-11-19T03:43:43;7.10;99.90
14119;DHT22;7138;49.246;9.100;2023-11-19T03:46:17;7.20;99.90
14119;DHT22;7138;49.246;9.100;2023-11-19T03:48:43;7.20;99.90
14119;DHT22;7138;49.246;9.100;2023-11-19T03:51:09;7.20;99.90
14119;DHT22;7138;49.246;9.100;2023-11-19T03:53:36;7.20;99.90
14119;DHT22;7138;49.246;9.100;2023-11-19T03:56:02;7.20;99.90
14119;DHT22;7138;49.246;9.100;2023-11-19T03:58:29;7.20;99.90
14119;DHT22;7138;49.246;9.100;2023-11-19T04:00:54;7.30;99.90
14119;DHT22;7138;49.246;9.100;2023-11-19T04:03:20;7.40;99.90
14119;DHT22;7138;49.246;9.100;2023-11-19T04:05:46;7.40;99.90
14119;DHT22;7138;49.246;9.100;2023-11-19T04:08:12;7.60;99.90
14119;DHT22;7138;49.246;9.100;2023-11-19T04:10:39;7.80;99.90
14119;DHT22;7138;49.246;9.100;2023-11-19T04:13:05;8.00;99.90
14119;DHT22;7138;49.246;9.100;2023-11-19T04:15:31;8.30;99.90
14119;DHT22;7138;49.246;9.100;2023-11-19T04:17:57;8.80;99.90
14119;DHT22;7138;49.246;9.100;2023-11-19T04:20:23;9.00;99.90
14119;DHT22;7138;49.246;9.100;2023-11-19T04:22:50;9.40;99.90
14119;DHT22;7138;49.246;9.100;2023-11-19T04:25:16;9.50;99.90
14119;DHT22;7138;49.246;9.100;2023-11-19T04:27:46;9.60;99.90
14119;DHT22;7138;49.246;9.100;2023-11-19T04:30:13;9.80;99.90
14119;DHT22;7138;49.246;9.100;2023-11-19T04:32:39;9.80;99.90
14119;DHT22;7138;49.246;9.100;2023-11-19T04:35:06;9.80;99.90
14119;DHT22;7138;49.246;9.100;2023-11-19T04:37:33;9.90;99.90
14119;DHT22;7138;49.246;9.100;2023-11-19T04:39:58;9.90;99.90
14119;DHT22;7138;49.246;9.100;2023-11-19T04:42:25;10.00;99.90
14119;DHT22;7138;49.246;9.100;2023-11-19T04:44:52;10.10;99.90
14119;DHT22;7138;49.246;9.100;2023-11-19T04:47:18;10.10;99.90
14119;DHT22;7138;49.246;9.100;2023-11-19T04:49:44;10.10;99.90
14119;DHT22;7138;49.246;9.100;2023-11-19T04:52:10;10.20;99.90
14119;DHT22;7138;49.246;9.100;2023-11-19T04:54:40;10.20;99.90
14119;DHT22;7138;49.246;9.100;2023-11-19T04:57:07;10.20;99.90
14119;DHT22;7138;49.246;9.100;2023-11-19T04:59:36;10.20;99.90
14119;DHT22;7138;49.246;9.100;2023-11-19T05:02:03;10.20;99.90
14119;DHT22;7138;49.246;9.100;2023-11-19T05:04:29;10.40;99.90
14119;DHT22;7138;49.246;9.100;2023-11-19T05:06:55;10.70;99.90
14119;DHT22;7138;49.246;9.100;2023-11-19T05:09:21;10.80;99.90
14119;DHT22;7138;49.246;9.100;2023-11-19T05:11:47;10.90;99.90
14119;DHT22;7138;49.246;9.100;2023-11-19T05:14:13;10.90;99.90
14119;DHT22;7138;49.246;9.100;2023-11-19T05:16:39;10.90;99.90
14119;DHT22;7138;49.246;9.100;2023-11-19T05:19:07;10.90;99.90
14119;DHT22;7138;49.246;9.100;2023-11-19T05:21:34;11.00;99.90
14119;DHT22;7138;49.246;9.100;2023-11-19T05:24:01;11.00;99.90
14119;DHT22;7138;49.246;9.100;2023-11-19T05:26:30;11.00;99.90
14119;DHT22;7138;49.246;9.100;2023-11-19T05:28:56;11.10;99.90
14119;DHT22;7138;49.246;9.100;2023-11-19T05:31:21;11.00;99.90
14119;DHT22;7138;49.246;9.100;2023-11-19T05:33:48;11.00;99.90
14119;DHT22;7138;49.246;9.100;2023-11-19T05:36:15;11.20;99.90
14119;DHT22;7138;49.246;9.100;2023-11-19T05:38:41;11.10;99.90
14119;DHT22;7138;49.246;9.100;2023-11-19T05:41:07;11.20;99.90
14119;DHT22;7138;49.246;9.100;2023-11-19T05:43:33;11.30;99.90
14119;DHT22;7138;49.246;9.100;2023-11-19T05:45:59;11.20;99.90
14119;DHT22;7138;49.246;9.100;2023-11-19T05:48:26;11.20;99.90
14119;DHT22;7138;49.246;9.100;2023-11-19T05:50:53;11.10;99.90
14119;DHT22;7138;49.246;9.100;2023-11-19T05:53:20;11.20;99.90
14119;DHT22;7138;49.246;9.100;2023-11-19T05:55:46;11.20;99.90
14119;DHT22;7138;49.246;9.100;2023-11-19T05:58:19;11.00;99.90
14119;DHT22;7138;49.246;9.100;2023-11-19T06:00:48;10.90;99.90
14119;DHT22;7138;49.246;9.100;2023-11-19T06:03:16;10.90;99.90
14119;DHT22;7138;49.246;9.100;2023-11-19T06:05:44;10.90;99.90
14119;DHT22;7138;49.246;9.100;2023-11-19T06:08:10;11.00;99.90
14119;DHT22;7138;49.246;9.100;2023-11-19T06:10:38;11.00;99.90
14119;DHT22;7138;49.246;9.100;2023-11-19T06:13:04;11.00;99.90
14119;DHT22;7138;49.246;9.100;2023-11-19T06:15:30;11.00;99.90
14119;DHT22;7138;49.246;9.100;2023-11-19T06:17:59;11.00;99.90
14119;DHT22;7138;49.246;9.100;2023-11-19T06:20:26;11.00;99.90
14119;DHT22;7138;49.246;9.100;2023-11-19T06:22:54;11.00;99.90
14119;DHT22;7138;49.246;9.100;2023-11-19T06:25:20;11.10;99.90
14119;DHT22;7138;49.246;9.100;2023-11-19T06:27:47;11.10;99.90
14119;DHT22;7138;49.246;9.100;2023-11-19T06:30:13;11.10;99.90
14119;DHT22;7138;49.246;9.100;2023-11-19T06:32:39;11.20;99.90
14119;DHT22;7138;49.246;9.100;2023-11-19T06:35:05;11.20;99.90
14119;DHT22;7138;49.246;9.100;2023-11-19T06:37:32;11.20;99.90
14119;DHT22;7138;49.246;9.100;2023-11-19T06:39:58;11.30;99.90
14119;DHT22;7138;49.246;9.100;2023-11-19T06:42:24;11.30;99.90
14119;DHT22;7138;49.246;9.100;2023-11-19T06:44:51;11.30;99.90
14119;DHT22;7138;49.246;9.100;2023-11-19T06:47:17;11.40;99.90
14119;DHT22;7138;49.246;9.100;2023-11-19T06:49:44;11.40;99.90
14119;DHT22;7138;49.246;9.100;2023-11-19T06:52:10;11.40;99.90
14119;DHT22;7138;49.246;9.100;2023-11-19T06:54:36;11.40;99.90
14119;DHT22;7138;49.246;9.100;2023-11-19T06:57:04;11.50;99.90
14119;DHT22;7138;49.246;9.100;2023-11-19T06:59:30;11.50;99.90
14119;DHT22;7138;49.246;9.100;2023-11-19T07:01:57;11.50;99.90
14119;DHT22;7138;49.246;9.100;2023-11-19T07:04:24;11.50;99.90
14119;DHT22;7138;49.246;9.100;2023-11-19T07:06:50;11.50;99.90
14119;DHT22;7138;49.246;9.100;2023-11-19T07:09:18;11.60;99.90
14119;DHT22;7138;49.246;9.100;2023-11-19T07:11:45;11.60;99.90
14119;DHT22;7138;49.246;9.100;2023-11-19T07:14:11;11.60;99.90
14119;DHT22;7138;49.246;9.100;2023-11-19T07:16:37;11.60;99.90
14119;DHT22;7138;49.246;9.100;2023-11-19T07:19:06;11.60;99.90
14119;DHT22;7138;49.246;9.100;2023-11-19T07:21:32;11.60;99.90
14119;DHT22;7138;49.246;9.100;2023-11-19T07:24:05;11.60;99.90
14119;DHT22;7138;49.246;9.100;2023-11-19T07:26:32;11.60;99.90
14119;DHT22;7138;49.246;9.100;2023-11-19T07:28:58;11.70;99.90
14119;DHT22;7138;49.246;9.100;2023-11-19T07:31:24;11.80;99.90
14119;DHT22;7138;49.246;9.100;2023-11-19T07:33:50;11.80;99.90
14119;DHT22;7138;49.246;9.100;2023-11-19T07:36:17;11.90;99.90
14119;DHT22;7138;49.246;9.100;2023-11-19T07:38:43;11.90;99.90
14119;DHT22;7138;49.246;9.100;2023-11-19T07:41:10;11.90;99.90
14119;DHT22;7138;49.246;9.100;2023-11-19T07:43:39;12.00;99.90
14119;DHT22;7138;49.246;9.100;2023-11-19T07:46:05;12.10;99.90
14119;DHT22;7138;49.246;9.100;2023-11-19T07:48:35;12.00;99.90
14119;DHT22;7138;49.246;9.100;2023-11-19T07:51:02;12.10;99.90
14119;DHT22;7138;49.246;9.100;2023-11-19T07:53:29;12.10;99.90
14119;DHT22;7138;49.246;9.100;2023-11-19T07:55:55;12.00;99.90
14119;DHT22;7138;49.246;9.100;2023-11-19T07:58:20;12.00;99.90
14119;DHT22;7138;49.246;9.100;2023-11-19T08:00:46;12.00;99.90
14119;DHT22;7138;49.246;9.100;2023-11-19T08:03:12;11.90;99.90
14119;DHT22;7138;49.246;9.100;2023-11-19T08:05:38;11.90;99.90
14119;DHT22;7138;49.246;9.100;2023-11-19T08:08:04;11.80;99.90
14119;DHT22;7138;49.246;9.100;2023-11-19T08:10:32;11.80;99.90
14119;DHT22;7138;49.246;9.100;2023-11-19T08:13:00;11.80;99.90
14119;DHT22;7138;49.246;9.100;2023-11-19T08:15:26;11.80;99.90
14119;DHT22;7138;49.246;9.100;2023-11-19T08:17:52;11.90;99.90
14119;DHT22;7138;49.246;9.100;2023-11-19T08:20:19;12.00;99.90
14119;DHT22;7138;49.246;9.100;2023-11-19T08:22:44;12.10;99.90
14119;DHT22;7138;49.246;9.100;2023-11-19T08:25:10;12.30;99.90
14119;DHT22;7138;49.246;9.100;2023-11-19T08:27:37;12.50;99.90
14119;DHT22;7138;49.246;9.100;2023-11-19T08:30:04;12.50;99.90
14119;DHT22;7138;49.246;9.100;2023-11-19T08:32:32;12.60;99.90
14119;DHT22;7138;49.246;9.100;2023-11-19T08:34:57;12.70;99.90
14119;DHT22;7138;49.246;9.100;2023-11-19T08:37:24;12.90;99.90
14119;DHT22;7138;49.246;9.100;2023-11-19T08:39:50;12.90;99.90
14119;DHT22;7138;49.246;9.100;2023-11-19T08:42:16;13.10;99.90
14119;DHT22;7138;49.246;9.100;2023-11-19T08:44:44;13.30;99.90
14119;DHT22;7138;49.246;9.100;2023-11-19T08:47:17;13.40;99.90
14119;DHT22;7138;49.246;9.100;2023-11-19T08:49:45;13.40;99.90
14119;DHT22;7138;49.246;9.100;2023-11-19T08:52:11;13.40;99.90
14119;DHT22;7138;49.246;9.100;2023-11-19T08:54:37;13.30;99.90
14119;DHT22;7138;49.246;9.100;2023-11-19T08:57:03;13.40;99.90
14119;DHT22;7138;49.246;9.100;2023-11-19T08:59:30;13.50;99.90
14119;DHT22;7138;49.246;9.100;2023-11-19T09:01:57;13.50;99.90
14119;DHT22;7138;49.246;9.100;2023-11-19T09:04:23;13.50;99.90
14119;DHT22;7138;49.246;9.100;2023-11-19T09:06:49;13.40;99.90
14119;DHT22;7138;49.246;9.100;2023-11-19T09:09:15;13.40;99.90
14119;DHT22;7138;49.246;9.100;2023-11-19T09:11:41;13.40;99.90
14119;DHT22;7138;49.246;9.100;2023-11-19T09:14:06;13.50;99.90
14119;DHT22;7138;49.246;9.100;2023-11-19T09:16:32;13.60;99.90
14119;DHT22;7138;49.246;9.100;2023-11-19T09:19:00;13.60;99.90
14119;DHT22;7138;49.246;9.100;2023-11-19T09:21:27;13.80;99.90
14119;DHT22;7138;49.246;9.100;2023-11-19T09:23:55;13.90;99.90
14119;DHT22;7138;49.246;9.100;2023-11-19T09:26:20;13.90;99.90
14119;DHT22;7138;49.246;9.100;2023-11-19T09:28:46;13.90;99.90
14119;DHT22;7138;49.246;9.100;2023-11-19T09:31:15;13.90;99.90
14119;DHT22;7138;49.246;9.100;2023-11-19T09:33:42;13.80;99.90
14119;DHT22;7138;49.246;9.100;2023-11-19T09:36:12;13.80;99.90
14119;DHT22;7138;49.246;9.100;2023-11-19T09:38:39;13.90;99.90
14119;DHT22;7138;49.246;9.100;2023-11-19T09:41:05;13.90;99.90
14119;DHT22;7138;49.246;9.100;2023-11-19T09:43:35;14.00;99.90
14119;DHT22;7138;49.246;9.100;2023-11-19T09:46:06;14.00;99.90
14119;DHT22;7138;49.246;9.100;2023-11-19T09:48:36;14.10;99.90
14119;DHT22;7138;49.246;9.100;2023-11-19T09:51:04;14.10;99.90
14119;DHT22;7138;49.246;9.100;2023-11-19T09:53:33;14.20;99.90
14119;DHT22;7138;49.246;9.100;2023-11-19T09:56:00;14.20;99.90
14119;DHT22;7138;49.246;9.100;2023-11-19T09:58:29;14.10;99.90
14119;DHT22;7138;49.246;9.100;2023-11-19T10:00:56;14.10;99.90
14119;DHT22;7138;49.246;9.100;2023-11-19T10:03:25;14.10;99.90
14119;DHT22;7138;49.246;9.100;2023-11-19T10:05:52;14.20;99.90
14119;DHT22;7138;49.246;9.100;2023-11-19T10:08:20;14.40;99.90
14119;DHT22;7138;49.246;9.100;2023-11-19T10:10:47;14.40;99.90
14119;DHT22;7138;49.246;9.100;2023-11-19T10:13:13;14.50;99.90
14119;DHT22;7138;49.246;9.100;2023-11-19T10:15:40;14.60;99.90
14119;DHT22;7138;49.246;9.100;2023-11-19T10:18:07;14.60;99.90
14119;DHT22;7138;49.246;9.100;2023-11-19T10:20:36;14.70;99.90
14119;DHT22;7138;49.246;9.100;2023-11-19T10:23:02;14.80;99.90
14119;DHT22;7138;49.246;9.100;2023-11-19T10:25:29;14.80;99.90
14119;DHT22;7138;49.246;9.100;2023-11-19T10:27:56;14.70;99.90
14119;DHT22;7138;49.246;9.100;2023-11-19T10:30:23;14.80;99.90
14119;DHT22;7138;49.246;9.100;2023-11-19T10:33:03;14.80;99.90
14119;DHT22;7138;49.246;9.100;2023-11-19T10:35:31;14.90;99.90
14119;DHT22;7138;49.246;9.100;2023-11-19T10:37:59;15.00;99.90
14119;DHT22;7138;49.246;9.100;2023-11-19T10:40:37;15.10;99.90
14119;DHT22;7138;49.246;9.100;2023-11-19T10:43:07;14.80;99.90
14119;DHT22;7138;49.246;9.100;2023-11-19T10:45:37;14.80;99.90
14119;DHT22;7138;49.246;9.100;2023-11-19T10:48:05;14.80;99.90
14119;DHT22;7138;49.246;9.100;2023-11-19T10:50:34;14.80;99.90
14119;DHT22;7138;49.246;9.100;2023-11-19T10:53:05;14.80;99.90
14119;DHT22;7138;49.246;9.100;2023-11-19T10:55:36;14.90;99.90
14119;DHT22;7138;49.246;9.100;2023-11-19T10:58:08;14.80;99.90
14119;DHT22;7138;49.246;9.100;2023-11-19T11:00:41;14.90;99.90
14119;DHT22;7138;49.246;9.100;2023-11-19T11:03:16;14.80;99.90
14119;DHT22;7138;49.246;9.100;2023-11-19T11:05:47;14.80;99.90
14119;DHT22;7138;49.246;9.100;2023-11-19T11:08:13;15.00;99.90
14119;DHT22;7138;49.246;9.100;2023-11-19T11:10:44;15.10;99.90
14119;DHT22;7138;49.246;9.100;2023-11-19T11:13:13;15.20;99.90
14119;DHT22;7138;49.246;9.100;2023-11-19T11:15:40;15.10;99.90
14119;DHT22;7138;49.246;9.100;2023-11-19T11:18:08;14.90;99.90
14119;DHT22;7138;49.246;9.100;2023-11-19T11:20:35;14.90;99.90
14119;DHT22;7138;49.246;9.100;2023-11-19T11:23:17;15.10;99.90
14119;DHT22;7138;49.246;9.100;2023-11-19T11:26:16;15.30;99.90
14119;DHT22;7138;49.246;9.100;2023-11-19T11:29:03;15.40;99.90
14119;DHT22;7138;49.246;9.100;2023-11-19T11:31:39;15.40;99.90
14119;DHT22;7138;49.246;9.100;2023-11-19T11:34:38;15.50;99.90
14119;DHT22;7138;49.246;9.100;2023-11-19T11:37:18;15.50;99.90
14119;DHT22;7138;49.246;9.100;2023-11-19T11:39:46;15.50;99.90
14119;DHT22;7138;49.246;9.100;2023-11-19T11:42:34;15.40;99.90
14119;DHT22;7138;49.246;9.100;2023-11-19T11:45:03;15.40;99.90
14119;DHT22;7138;49.246;9.100;2023-11-19T11:48:14;15.40;99.90
14119;DHT22;7138;49.246;9.100;2023-11-19T11:50:49;15.40;99.90
14119;DHT22;7138;49.246;9.100;2023-11-19T11:53:17;15.40;99.90
14119;DHT22;7138;49.246;9.100;2023-11-19T11:56:03;15.50;99.90
14119;DHT22;7138;49.246;9.100;2023-11-19T11:58:32;15.60;99.90
14119;DHT22;7138;49.246;9.100;2023-11-19T12:01:01;15.50;99.90
14119;DHT22;7138;49.246;9.100;2023-11-19T12:03:31;15.50;99.90
14119;DHT22;7138;49.246;9.100;2023-11-19T12:05:58;15.40;99.90
14119;DHT22;7138;49.246;9.100;2023-11-19T12:08:28;15.60;99.90
14119;DHT22;7138;49.246;9.100;2023-11-19T12:10:57;15.40;99.90
14119;DHT22;7138;49.246;9.100;2023-11-19T12:13:24;15.30;99.90
14119;DHT22;7138;49.246;9.100;2023-11-19T12:16:10;15.60;99.90
14119;DHT22;7138;49.246;9.100;2023-11-19T12:18:38;15.60;99.90
14119;DHT22;7138;49.246;9.100;2023-11-19T12:21:06;15.60;99.90
14119;DHT22;7138;49.246;9.100;2023-11-19T12:23:35;15.50;99.90
14119;DHT22;7138;49.246;9.100;2023-11-19T12:26:21;15.40;99.90
14119;DHT22;7138;49.246;9.100;2023-11-19T12:28:57;15.40;99.90
14119;DHT22;7138;49.246;9.100;2023-11-19T12:31:25;15.50;99.90
14119;DHT22;7138;49.246;9.100;2023-11-19T12:33:51;15.50;99.90
14119;DHT22;7138;49.246;9.100;2023-11-19T12:36:19;15.60;99.90
14119;DHT22;7138;49.246;9.100;2023-11-19T12:38:46;15.50;99.90
14119;DHT22;7138;49.246;9.100;2023-11-19T12:41:11;15.60;99.90
14119;DHT22;7138;49.246;9.100;2023-11-19T12:43:39;15.50;99.90
14119;DHT22;7138;49.246;9.100;2023-11-19T12:46:17;15.60;99.90
14119;DHT22;7138;49.246;9.100;2023-11-19T12:48:46;15.50;99.90
14119;DHT22;7138;49.246;9.100;2023-11-19T12:51:12;15.50;99.90
14119;DHT22;7138;49.246;9.100;2023-11-19T12:53:47;15.50;99.90
14119;DHT22;7138;49.246;9.100;2023-11-19T12:56:20;15.50;99.90
14119;DHT22;7138;49.246;9.100;2023-11-19T12:58:47;15.10;99.90
14119;DHT22;7138;49.246;9.100;2023-11-19T13:01:16;14.90;99.90
14119;DHT22;7138;49.246;9.100;2023-11-19T13:03:43;14.80;99.90
14119;DHT22;7138;49.246;9.100;2023-11-19T13:06:13;14.60;99.90
14119;DHT22;7138;49.246;9.100;2023-11-19T13:08:41;14.50;99.90
14119;DHT22;7138;49.246;9.100;2023-11-19T13:11:12;14.60;99.90
14119;DHT22;7138;49.246;9.100;2023-11-19T13:13:55;14.90;99.90
14119;DHT22;7138;49.246;9.100;2023-11-19T13:16:21;15.10;99.90
14119;DHT22;7138;49.246;9.100;2023-11-19T13:18:49;15.30;99.90
14119;DHT22;7138;49.246;9.100;2023-11-19T13:21:15;15.30;99.90
14119;DHT22;7138;49.246;9.100;2023-11-19T13:23:41;15.40;99.90
14119;DHT22;7138;49.246;9.100;2023-11-19T13:26:07;15.40;99.90
14119;DHT22;7138;49.246;9.100;2023-11-19T13:28:33;15.30;99.90
14119;DHT22;7138;49.246;9.100;2023-11-19T13:30:59;15.30;99.90
14119;DHT22;7138;49.246;9.100;2023-11-19T13:33:25;15.30;99.90
14119;DHT22;7138;49.246;9.100;2023-11-19T13:35:53;15.30;99.90
14119;DHT22;7138;49.246;9.100;2023-11-19T13:38:19;15.10;99.90
14119;DHT22;7138;49.246;9.100;2023-11-19T13:40:45;15.10;99.90
14119;DHT22;7138;49.246;9.100;2023-11-19T13:43:11;15.10;99.90
14119;DHT22;7138;49.246;9.100;2023-11-19T13:45:37;15.00;99.90
14119;DHT22;7138;49.246;9.100;2023-11-19T13:48:03;14.90;99.90
14119;DHT22;7138;49.246;9.100;2023-11-19T13:50:29;15.00;99.90
14119;DHT22;7138;49.246;9.100;2023-11-19T13:52:56;14.90;99.90
14119;DHT22;7138;49.246;9.100;2023-11-19T13:55:22;14.90;99.90
14119;DHT22;7138;49.246;9.100;2023-11-19T13:57:48;14.80;99.90
14119;DHT22;7138;49.246;9.100;2023-11-19T14:00:14;14.90;99.90
14119;DHT22;7138;49.246;9.100;2023-11-19T14:02:46;14.80;99.90
14119;DHT22;7138;49.246;9.100;2023-11-19T14:05:13;14.80;99.90
14119;DHT22;7138;49.246;9.100;2023-11-19T14:07:43;14.80;99.90
14119;DHT22;7138;49.246;9.100;2023-11-19T14:10:10;14.80;99.90
14119;DHT22;7138;49.246;9.100;2023-11-19T14:12:37;14.70;99.90
14119;DHT22;7138;49.246;9.100;2023-11-19T14:15:04;14.70;99.90
14119;DHT22;7138;49.246;9.100;2023-11-19T14:17:31;14.70;99.90
14119;DHT22;7138;49.246;9.100;2023-11-19T14:19:57;14.60;99.90
14119;DHT22;7138;49.246;9.100;2023-11-19T14:22:23;14.30;99.90
14119;DHT22;7138;49.246;9.100;2023-11-19T14:24:50;14.10;99.90
14119;DHT22;7138;49.246;9.100;2023-11-19T14:27:17;14.00;99.90
14119;DHT22;7138;49.246;9.100;2023-11-19T14:29:43;13.90;99.90
14119;DHT22;7138;49.246;9.100;2023-11-19T14:32:12;13.80;99.90
14119;DHT22;7138;49.246;9.100;2023-11-19T14:34:38;13.70;99.90
14119;DHT22;7138;49.246;9.100;2023-11-19T14:37:04;13.60;99.90
14119;DHT22;7138;49.246;9.100;2023-11-19T14:39:30;13.50;99.90
14119;DHT22;7138;49.246;9.100;2023-11-19T14:41:59;13.60;99.90
14119;DHT22;7138;49.246;9.100;2023-11-19T14:44:31;13.50;99.90
14119;DHT22;7138;49.246;9.100;2023-11-19T14:46:57;13.50;99.90
14119;DHT22;7138;49.246;9.100;2023-11-19T14:49:23;13.50;99.90
14119;DHT22;7138;49.246;9.100;2023-11-19T14:51:49;13.50;99.90
14119;DHT22;7138;49.246;9.100;2023-11-19T14:54:15;13.60;99.90
14119;DHT22;7138;49.246;9.100;2023-11-19T14:56:42;13.50;99.90
14119;DHT22;7138;49.246;9.100;2023-11-19T14:59:07;13.50;99.90
14119;DHT22;7138;49.246;9.100;2023-11-19T15:01:35;13.40;99.90
14119;DHT22;7138;49.246;9.100;2023-11-19T15:04:00;13.40;99.90
14119;DHT22;7138;49.246;9.100;2023-11-19T15:06:26;13.40;99.90
14119;DHT22;7138;49.246;9.100;2023-11-19T15:08:52;13.40;99.90
14119;DHT22;7138;49.246;9.100;2023-11-19T15:11:20;13.30;99.90
14119;DHT22;7138;49.246;9.100;2023-11-19T15:13:46;13.20;99.90
14119;DHT22;7138;49.246;9.100;2023-11-19T15:16:12;13.20;99.90
14119;DHT22;7138;49.246;9.100;2023-11-19T15:18:41;13.10;99.90
14119;DHT22;7138;49.246;9.100;2023-11-19T15:21:07;13.10;99.90
14119;DHT22;7138;49.246;9.100;2023-11-19T15:23:33;13.20;99.90
14119;DHT22;7138;49.246;9.100;2023-11-19T15:25:59;13.30;99.90
14119;DHT22;7138;49.246;9.100;2023-11-19T15:28:25;13.20;99.90
14119;DHT22;7138;49.246;9.100;2023-11-19T15:30:51;13.20;99.90
14119;DHT22;7138;49.246;9.100;2023-11-19T15:33:17;13.10;99.90
14119;DHT22;7138;49.246;9.100;2023-11-19T15:35:44;13.20;99.90
14119;DHT22;7138;49.246;9.100;2023-11-19T15:38:10;13.30;99.90
14119;DHT22;7138;49.246;9.100;2023-11-19T15:40:36;13.30;99.90
14119;DHT22;7138;49.246;9.100;2023-11-19T15:43:03;13.10;99.90
14119;DHT22;7138;49.246;9.100;2023-11-19T15:45:28;13.10;99.90
14119;DHT22;7138;49.246;9.100;2023-11-19T15:47:54;13.10;99.90
14119;DHT22;7138;49.246;9.100;2023-11-19T15:50:20;13.10;99.90
14119;DHT22;7138;49.246;9.100;2023-11-19T15:52:47;13.10;99.90